sensor_id;sensor_type;location;lat;lon;timestamp;pressure;altitude;pressure_sealevel;temperature;humidity
21594;BME280;10959;51.328;7.322;2024-03-23T00:54:24;98281.91;;;8.09;73.77
21594;BME280;10959;51.328;7.322;2024-03-23T00:56:51;98269.53;;;8.13;73.73
21594;BME280;10959;51.328;7.322;2024-03-23T00:59:16;98285.69;;;8.13;73.58
21594;BME280;10959;51.328;7.322;2024-03-23T01:01:43;98272.31;;;8.18;73.74
21594;BME280;10959;51.328;7.322;2024-03-23T01:04:08;98261.06;;;8.21;73.69
21594;BME280;10959;51.328;7.322;2024-03-23T01:06:35;98262.81;;;8.32;73.52
21594;BME280;10959;51.328;7.322;2024-03-23T01:09:00;98254.53;;;8.17;73.31
21594;BME280;10959;51.328;7.322;2024-03-23T01:11:28;98263.88;;;8.09;73.38
21594;BME280;10959;51.328;7.322;2024-03-23T01:13:54;98267.97;;;7.95;73.44
21594;BME280;10959;51.328;7.322;2024-03-23T01:16:21;98267.03;;;7.85;73.71
21594;BME280;10959;51.328;7.322;2024-03-23T01:18:46;98264.06;;;7.86;73.85
21594;BME280;10959;51.328;7.322;2024-03-23T01:21:13;98267.50;;;7.82;73.90
21594;BME280;10959;51.328;7.322;2024-03-23T01:23:38;98270.75;;;7.84;73.45
21594;BME280;10959;51.328;7.322;2024-03-23T01:26:05;98263.75;;;7.83;73.68
21594;BME280;10959;51.328;7.322;2024-03-23T01:28:32;98254.59;;;7.84;73.62
21594;BME280;10959;51.328;7.322;2024-03-23T01:30:58;98251.38;;;7.82;73.45
21594;BME280;10959;51.328;7.322;2024-03-23T01:33:24;98243.97;;;7.72;73.80
21594;BME280;10959;51.328;7.322;2024-03-23T01:35:50;98237.19;;;7.69;73.86
21594;BME280;10959;51.328;7.322;2024-03-23T01:38:16;98247.28;;;7.79;73.74
21594;BME280;10959;51.328;7.322;2024-03-23T01:40:42;98250.53;;;7.81;73.89
21594;BME280;10959;51.328;7.322;2024-03-23T01:43:08;98243.19;;;7.77;73.70
21594;BME280;10959;51.328;7.322;2024-03-23T01:45:37;98241.66;;;7.81;73.68
21594;BME280;10959;51.328;7.322;2024-03-23T01:48:03;98240.09;;;7.85;73.40
21594;BME280;10959;51.328;7.322;2024-03-23T01:50:31;98246.59;;;7.89;73.34
21594;BME280;10959;51.328;7.322;2024-03-23T01:52:58;98243.53;;;7.80;73.38
21594;BME280;10959;51.328;7.322;2024-03-23T01:55:26;98239.50;;;7.83;73.72
21594;BME280;10959;51.328;7.322;2024-03-23T01:57:52;98248.38;;;7.61;73.07
21594;BME280;10959;51.328;7.322;2024-03-23T02:00:19;98257.78;;;7.42;73.64
21594;BME280;10959;51.328;7.322;2024-03-23T02:02:46;98246.69;;;7.22;73.21
21594;BME280;10959;51.328;7.322;2024-03-23T02:05:13;98240.00;;;7.08;73.83
21594;BME280;10959;51.328;7.322;2024-03-23T02:07:39;98242.13;;;7.06;73.58
21594;BME280;10959;51.328;7.322;2024-03-23T02:10:06;98240.47;;;7.05;73.67
21594;BME280;10959;51.328;7.322;2024-03-23T02:12:32;98243.28;;;7.10;73.19
21594;BME280;10959;51.328;7.322;2024-03-23T02:14:58;98242.09;;;7.23;73.47
21594;BME280;10959;51.328;7.322;2024-03-23T02:17:24;98255.41;;;7.29;73.25
21594;BME280;10959;51.328;7.322;2024-03-23T02:19:51;98252.63;;;7.24;73.35
21594;BME280;10959;51.328;7.322;2024-03-23T02:22:17;98236.72;;;7.23;73.54
21594;BME280;10959;51.328;7.322;2024-03-23T02:24:45;98235.44;;;7.25;73.38
21594;BME280;10959;51.328;7.322;2024-03-23T02:27:11;98237.16;;;7.31;73.53
21594;BME280;10959;51.328;7.322;2024-03-23T02:29:38;98231.34;;;7.23;73.01
21594;BME280;10959;51.328;7.322;2024-03-23T02:32:04;98220.78;;;7.16;72.81
21594;BME280;10959;51.328;7.322;2024-03-23T02:34:31;98234.94;;;7.11;73.14
21594;BME280;10959;51.328;7.322;2024-03-23T02:36:57;98238.53;;;7.00;73.13
21594;BME280;10959;51.328;7.322;2024-03-23T02:39:23;98243.50;;;6.92;73.16
21594;BME280;10959;51.328;7.322;2024-03-23T02:41:50;98233.72;;;6.86;73.36
21594;BME280;10959;51.328;7.322;2024-03-23T02:44:17;98224.97;;;6.79;73.24
21594;BME280;10959;51.328;7.322;2024-03-23T02:46:42;98225.88;;;6.84;73.59
21594;BME280;10959;51.328;7.322;2024-03-23T02:49:08;98223.13;;;6.96;73.45
21594;BME280;10959;51.328;7.322;2024-03-23T02:51:34;98213.59;;;7.05;73.25
21594;BME280;10959;51.328;7.322;2024-03-23T02:54:00;98207.50;;;7.09;73.08
21594;BME280;10959;51.328;7.322;2024-03-23T02:56:26;98209.69;;;7.12;72.59
21594;BME280;10959;51.328;7.322;2024-03-23T02:58:54;98221.88;;;6.87;69.92
21594;BME280;10959;51.328;7.322;2024-03-23T03:01:19;98237.84;;;6.77;70.45
21594;BME280;10959;51.328;7.322;2024-03-23T03:03:46;98239.09;;;6.86;71.43
21594;BME280;10959;51.328;7.322;2024-03-23T03:06:11;98232.34;;;7.00;70.90
21594;BME280;10959;51.328;7.322;2024-03-23T03:08:38;98236.19;;;7.04;70.59
21594;BME280;10959;51.328;7.322;2024-03-23T03:11:04;98234.19;;;6.83;69.73
21594;BME280;10959;51.328;7.322;2024-03-23T03:13:30;98229.69;;;6.72;69.88
21594;BME280;10959;51.328;7.322;2024-03-23T03:15:57;98241.50;;;6.71;70.40
21594;BME280;10959;51.328;7.322;2024-03-23T03:18:24;98238.50;;;6.84;70.83
21594;BME280;10959;51.328;7.322;2024-03-23T03:20:49;98232.97;;;6.90;70.52
21594;BME280;10959;51.328;7.322;2024-03-23T03:23:16;98228.75;;;6.94;70.43
21594;BME280;10959;51.328;7.322;2024-03-23T03:25:43;98235.91;;;7.05;70.27
21594;BME280;10959;51.328;7.322;2024-03-23T03:28:09;98233.00;;;7.07;70.13
21594;BME280;10959;51.328;7.322;2024-03-23T03:30:35;98228.75;;;7.11;69.64
21594;BME280;10959;51.328;7.322;2024-03-23T03:33:02;98225.09;;;7.17;70.11
21594;BME280;10959;51.328;7.322;2024-03-23T03:35:28;98217.69;;;7.24;70.00
21594;BME280;10959;51.328;7.322;2024-03-23T03:37:55;98202.38;;;7.25;69.43
21594;BME280;10959;51.328;7.322;2024-03-23T03:40:20;98204.78;;;7.26;69.69
21594;BME280;10959;51.328;7.322;2024-03-23T03:42:47;98200.88;;;7.34;70.40
21594;BME280;10959;51.328;7.322;2024-03-23T03:45:14;98196.94;;;7.41;69.94
21594;BME280;10959;51.328;7.322;2024-03-23T03:47:40;98203.47;;;7.45;69.85
21594;BME280;10959;51.328;7.322;2024-03-23T03:50:07;98212.28;;;7.41;69.27
21594;BME280;10959;51.328;7.322;2024-03-23T03:52:34;98212.47;;;7.34;69.65
21594;BME280;10959;51.328;7.322;2024-03-23T03:55:01;98208.97;;;7.34;70.01
21594;BME280;10959;51.328;7.322;2024-03-23T03:57:28;98221.97;;;7.42;70.11
21594;BME280;10959;51.328;7.322;2024-03-23T03:59:54;98211.00;;;7.43;69.79
21594;BME280;10959;51.328;7.322;2024-03-23T04:02:21;98221.75;;;7.43;70.08
21594;BME280;10959;51.328;7.322;2024-03-23T04:04:46;98211.78;;;7.44;70.17
21594;BME280;10959;51.328;7.322;2024-03-23T04:07:14;98207.16;;;7.39;69.96
21594;BME280;10959;51.328;7.322;2024-03-23T04:09:39;98216.88;;;7.40;69.88
21594;BME280;10959;51.328;7.322;2024-03-23T04:12:06;98203.31;;;7.35;69.94
21594;BME280;10959;51.328;7.322;2024-03-23T04:14:32;98205.50;;;7.38;70.18
21594;BME280;10959;51.328;7.322;2024-03-23T04:16:59;98200.22;;;7.43;70.56
21594;BME280;10959;51.328;7.322;2024-03-23T04:19:24;98213.41;;;7.45;69.86
21594;BME280;10959;51.328;7.322;2024-03-23T04:21:51;98203.41;;;7.40;70.09
21594;BME280;10959;51.328;7.322;2024-03-23T04:24:17;98210.16;;;7.43;70.28
21594;BME280;10959;51.328;7.322;2024-03-23T04:26:46;98210.50;;;7.46;70.44
21594;BME280;10959;51.328;7.322;2024-03-23T04:29:12;98211.63;;;7.50;70.80
21594;BME280;10959;51.328;7.322;2024-03-23T04:31:38;98206.06;;;7.57;70.65
21594;BME280;10959;51.328;7.322;2024-03-23T04:34:04;98197.44;;;7.55;70.46
21594;BME280;10959;51.328;7.322;2024-03-23T04:36:31;98199.97;;;7.61;70.79
21594;BME280;10959;51.328;7.322;2024-03-23T04:38:57;98196.50;;;7.66;70.91
21594;BME280;10959;51.328;7.322;2024-03-23T04:41:25;98199.19;;;7.66;70.57
21594;BME280;10959;51.328;7.322;2024-03-23T04:43:52;98200.56;;;7.68;71.00
21594;BME280;10959;51.328;7.322;2024-03-23T04:46:18;98202.22;;;7.69;70.87
21594;BME280;10959;51.328;7.322;2024-03-23T04:48:46;98206.53;;;7.70;70.57
21594;BME280;10959;51.328;7.322;2024-03-23T04:51:20;98202.44;;;7.68;70.81
21594;BME280;10959;51.328;7.322;2024-03-23T04:53:46;98211.94;;;7.70;70.59
21594;BME280;10959;51.328;7.322;2024-03-23T04:56:13;98198.88;;;7.62;70.54
21594;BME280;10959;51.328;7.322;2024-03-23T04:58:41;98210.28;;;7.69;70.55
21594;BME280;10959;51.328;7.322;2024-03-23T05:01:06;98210.50;;;7.68;70.81
21594;BME280;10959;51.328;7.322;2024-03-23T05:03:33;98194.88;;;7.65;70.79
21594;BME280;10959;51.328;7.322;2024-03-23T05:05:58;98200.56;;;7.68;71.05
21594;BME280;10959;51.328;7.322;2024-03-23T05:08:25;98198.16;;;7.67;70.91
21594;BME280;10959;51.328;7.322;2024-03-23T05:10:51;98198.97;;;7.67;71.02
21594;BME280;10959;51.328;7.322;2024-03-23T05:13:17;98193.00;;;7.65;70.78
21594;BME280;10959;51.328;7.322;2024-03-23T05:15:51;98197.56;;;7.65;70.59
21594;BME280;10959;51.328;7.322;2024-03-23T05:18:17;98201.41;;;7.69;70.84
21594;BME280;10959;51.328;7.322;2024-03-23T05:20:43;98197.88;;;7.68;70.83
21594;BME280;10959;51.328;7.322;2024-03-23T05:23:10;98193.09;;;7.70;70.88
21594;BME280;10959;51.328;7.322;2024-03-23T05:25:35;98199.53;;;7.69;70.90
21594;BME280;10959;51.328;7.322;2024-03-23T05:28:02;98194.63;;;7.66;70.73
21594;BME280;10959;51.328;7.322;2024-03-23T05:30:27;98197.88;;;7.68;70.51
21594;BME280;10959;51.328;7.322;2024-03-23T05:32:55;98200.25;;;7.65;70.69
21594;BME280;10959;51.328;7.322;2024-03-23T05:35:20;98192.88;;;7.55;70.68
21594;BME280;10959;51.328;7.322;2024-03-23T05:37:47;98204.75;;;7.59;70.51
21594;BME280;10959;51.328;7.322;2024-03-23T05:40:13;98195.47;;;7.50;70.73
21594;BME280;10959;51.328;7.322;2024-03-23T05:42:40;98186.19;;;7.41;71.01
21594;BME280;10959;51.328;7.322;2024-03-23T05:45:07;98198.59;;;7.42;70.66
21594;BME280;10959;51.328;7.322;2024-03-23T05:47:34;98199.56;;;7.36;70.95
21594;BME280;10959;51.328;7.322;2024-03-23T05:50:01;98192.16;;;7.27;71.28
21594;BME280;10959;51.328;7.322;2024-03-23T05:52:27;98216.03;;;7.23;71.35
21594;BME280;10959;51.328;7.322;2024-03-23T05:54:53;98212.28;;;6.91;71.79
21594;BME280;10959;51.328;7.322;2024-03-23T05:57:20;98219.47;;;6.85;72.45
21594;BME280;10959;51.328;7.322;2024-03-23T05:59:46;98229.50;;;6.61;73.08
21594;BME280;10959;51.328;7.322;2024-03-23T06:02:12;98211.75;;;6.60;73.58
21594;BME280;10959;51.328;7.322;2024-03-23T06:04:38;98214.25;;;6.50;73.93
21594;BME280;10959;51.328;7.322;2024-03-23T06:07:05;98218.72;;;6.45;74.23
21594;BME280;10959;51.328;7.322;2024-03-23T06:09:35;98217.28;;;6.54;74.10
21594;BME280;10959;51.328;7.322;2024-03-23T06:12:00;98214.53;;;6.66;74.16
21594;BME280;10959;51.328;7.322;2024-03-23T06:14:27;98207.56;;;6.81;73.49
21594;BME280;10959;51.328;7.322;2024-03-23T06:16:52;98210.66;;;6.90;73.28
21594;BME280;10959;51.328;7.322;2024-03-23T06:19:19;98219.94;;;6.99;72.94
21594;BME280;10959;51.328;7.322;2024-03-23T06:21:44;98214.56;;;6.99;72.88
21594;BME280;10959;51.328;7.322;2024-03-23T06:24:12;98220.84;;;6.88;72.76
21594;BME280;10959;51.328;7.322;2024-03-23T06:26:38;98235.25;;;6.82;73.00
21594;BME280;10959;51.328;7.322;2024-03-23T06:29:04;98220.66;;;6.78;73.15
21594;BME280;10959;51.328;7.322;2024-03-23T06:31:30;98233.25;;;6.77;73.12
21594;BME280;10959;51.328;7.322;2024-03-23T06:33:57;98234.63;;;6.63;73.22
21594;BME280;10959;51.328;7.322;2024-03-23T06:36:22;98237.47;;;6.56;73.59
21594;BME280;10959;51.328;7.322;2024-03-23T06:38:48;98224.13;;;6.61;73.69
21594;BME280;10959;51.328;7.322;2024-03-23T06:41:15;98221.69;;;6.60;73.61
21594;BME280;10959;51.328;7.322;2024-03-23T06:43:43;98236.31;;;6.52;74.11
21594;BME280;10959;51.328;7.322;2024-03-23T06:46:08;98232.56;;;6.53;74.27
21594;BME280;10959;51.328;7.322;2024-03-23T06:48:35;98230.03;;;6.47;74.75
21594;BME280;10959;51.328;7.322;2024-03-23T06:51:00;98240.34;;;6.38;75.02
21594;BME280;10959;51.328;7.322;2024-03-23T06:53:27;98241.41;;;6.37;75.26
21594;BME280;10959;51.328;7.322;2024-03-23T06:55:53;98248.16;;;6.40;75.48
21594;BME280;10959;51.328;7.322;2024-03-23T06:58:23;98234.97;;;6.38;75.55
21594;BME280;10959;51.328;7.322;2024-03-23T07:00:49;98241.50;;;6.42;75.59
21594;BME280;10959;51.328;7.322;2024-03-23T07:03:16;98250.47;;;6.48;75.50
21594;BME280;10959;51.328;7.322;2024-03-23T07:05:42;98252.44;;;6.52;75.67
21594;BME280;10959;51.328;7.322;2024-03-23T07:08:09;98246.88;;;6.42;75.78
21594;BME280;10959;51.328;7.322;2024-03-23T07:10:35;98243.91;;;6.55;75.95
21594;BME280;10959;51.328;7.322;2024-03-23T07:13:01;98252.72;;;6.68;75.67
21594;BME280;10959;51.328;7.322;2024-03-23T07:15:28;98242.34;;;6.88;75.45
21594;BME280;10959;51.328;7.322;2024-03-23T07:17:55;98248.88;;;6.92;75.47
21594;BME280;10959;51.328;7.322;2024-03-23T07:20:20;98246.81;;;6.99;75.13
21594;BME280;10959;51.328;7.322;2024-03-23T07:22:47;98249.31;;;7.34;74.76
21594;BME280;10959;51.328;7.322;2024-03-23T07:25:13;98242.28;;;7.33;74.48
21594;BME280;10959;51.328;7.322;2024-03-23T07:27:39;98243.91;;;7.50;74.58
21594;BME280;10959;51.328;7.322;2024-03-23T07:30:06;98240.13;;;7.68;73.82
21594;BME280;10959;51.328;7.322;2024-03-23T07:32:35;98237.31;;;7.80;72.82
21594;BME280;10959;51.328;7.322;2024-03-23T07:35:01;98235.72;;;8.22;72.76
21594;BME280;10959;51.328;7.322;2024-03-23T07:37:28;98238.94;;;8.62;72.49
21594;BME280;10959;51.328;7.322;2024-03-23T07:39:54;98234.66;;;8.93;70.98
21594;BME280;10959;51.328;7.322;2024-03-23T07:42:20;98231.75;;;9.00;71.10
21594;BME280;10959;51.328;7.322;2024-03-23T07:44:46;98228.28;;;9.04;71.16
21594;BME280;10959;51.328;7.322;2024-03-23T07:47:12;98235.06;;;9.38;70.66
21594;BME280;10959;51.328;7.322;2024-03-23T07:49:39;98242.88;;;9.77;70.27
21594;BME280;10959;51.328;7.322;2024-03-23T07:52:06;98243.88;;;10.08;69.58
21594;BME280;10959;51.328;7.322;2024-03-23T07:54:33;98237.97;;;10.16;67.99
21594;BME280;10959;51.328;7.322;2024-03-23T07:57:00;98248.25;;;10.14;67.22
21594;BME280;10959;51.328;7.322;2024-03-23T07:59:25;98244.78;;;10.28;67.82
21594;BME280;10959;51.328;7.322;2024-03-23T08:01:52;98244.03;;;10.33;67.96
21594;BME280;10959;51.328;7.322;2024-03-23T08:04:17;98247.56;;;10.48;67.44
21594;BME280;10959;51.328;7.322;2024-03-23T08:06:45;98250.84;;;10.56;66.66
21594;BME280;10959;51.328;7.322;2024-03-23T08:09:10;98245.19;;;10.62;67.20
21594;BME280;10959;51.328;7.322;2024-03-23T08:11:37;98242.50;;;10.57;65.49
21594;BME280;10959;51.328;7.322;2024-03-23T08:14:04;98252.13;;;10.38;65.58
21594;BME280;10959;51.328;7.322;2024-03-23T08:16:31;98253.41;;;10.20;64.68
21594;BME280;10959;51.328;7.322;2024-03-23T08:18:56;98255.13;;;9.94;66.53
21594;BME280;10959;51.328;7.322;2024-03-23T08:21:23;98258.16;;;10.03;67.15
21594;BME280;10959;51.328;7.322;2024-03-23T08:23:51;98253.31;;;10.10;65.98
21594;BME280;10959;51.328;7.322;2024-03-23T08:26:18;98263.22;;;9.89;66.70
21594;BME280;10959;51.328;7.322;2024-03-23T08:28:43;98255.09;;;9.84;66.48
21594;BME280;10959;51.328;7.322;2024-03-23T08:31:11;98252.34;;;10.21;66.57
21594;BME280;10959;51.328;7.322;2024-03-23T08:33:38;98250.81;;;10.45;66.78
21594;BME280;10959;51.328;7.322;2024-03-23T08:36:07;98249.72;;;10.41;66.50
21594;BME280;10959;51.328;7.322;2024-03-23T08:38:33;98251.84;;;10.39;64.84
21594;BME280;10959;51.328;7.322;2024-03-23T08:41:02;98241.25;;;10.23;65.54
21594;BME280;10959;51.328;7.322;2024-03-23T08:43:28;98235.56;;;10.19;65.15
21594;BME280;10959;51.328;7.322;2024-03-23T08:46:03;98250.72;;;9.78;65.32
21594;BME280;10959;51.328;7.322;2024-03-23T08:48:29;98253.53;;;9.93;65.75
21594;BME280;10959;51.328;7.322;2024-03-23T08:50:59;98247.19;;;9.73;66.05
21594;BME280;10959;51.328;7.322;2024-03-23T08:53:27;98249.69;;;9.84;66.25
21594;BME280;10959;51.328;7.322;2024-03-23T08:55:54;98245.22;;;10.05;66.33
21594;BME280;10959;51.328;7.322;2024-03-23T08:58:21;98249.78;;;10.05;65.90
21594;BME280;10959;51.328;7.322;2024-03-23T09:00:47;98252.84;;;9.76;64.54
21594;BME280;10959;51.328;7.322;2024-03-23T09:03:14;98250.31;;;9.28;65.17
21594;BME280;10959;51.328;7.322;2024-03-23T09:05:41;98249.81;;;9.31;66.42
21594;BME280;10959;51.328;7.322;2024-03-23T09:08:07;98248.25;;;9.35;66.30
21594;BME280;10959;51.328;7.322;2024-03-23T09:10:37;98237.34;;;9.25;65.68
21594;BME280;10959;51.328;7.322;2024-03-23T09:13:03;98260.00;;;9.56;65.74
21594;BME280;10959;51.328;7.322;2024-03-23T09:15:31;98286.09;;;9.13;64.76
21594;BME280;10959;51.328;7.322;2024-03-23T09:17:58;98293.72;;;7.69;63.89
21594;BME280;10959;51.328;7.322;2024-03-23T09:20:25;98304.31;;;6.41;67.83
21594;BME280;10959;51.328;7.322;2024-03-23T09:22:50;98306.09;;;5.78;70.15
21594;BME280;10959;51.328;7.322;2024-03-23T09:25:17;98308.78;;;5.43;71.43
21594;BME280;10959;51.328;7.322;2024-03-23T09:27:42;98310.38;;;5.32;72.58
21594;BME280;10959;51.328;7.322;2024-03-23T09:30:10;98319.34;;;5.26;73.17
21594;BME280;10959;51.328;7.322;2024-03-23T09:32:37;98288.16;;;5.55;73.27
21594;BME280;10959;51.328;7.322;2024-03-23T09:35:04;98281.28;;;5.94;72.46
21594;BME280;10959;51.328;7.322;2024-03-23T09:37:30;98279.59;;;6.28;71.88
21594;BME280;10959;51.328;7.322;2024-03-23T09:39:56;98276.69;;;6.57;71.28
21594;BME280;10959;51.328;7.322;2024-03-23T09:42:22;98278.53;;;6.69;70.41
21594;BME280;10959;51.328;7.322;2024-03-23T09:44:50;98290.78;;;6.93;70.29
21594;BME280;10959;51.328;7.322;2024-03-23T09:47:16;98295.59;;;7.19;70.15
21594;BME280;10959;51.328;7.322;2024-03-23T09:49:44;98289.00;;;7.43;69.68
21594;BME280;10959;51.328;7.322;2024-03-23T09:52:12;98276.97;;;7.84;68.45
21594;BME280;10959;51.328;7.322;2024-03-23T09:54:39;98275.84;;;8.40;68.36
21594;BME280;10959;51.328;7.322;2024-03-23T09:57:05;98266.34;;;8.54;67.34
21594;BME280;10959;51.328;7.322;2024-03-23T09:59:33;98269.19;;;8.69;67.36
21594;BME280;10959;51.328;7.322;2024-03-23T10:01:59;98263.81;;;8.96;67.95
21594;BME280;10959;51.328;7.322;2024-03-23T10:04:36;98259.19;;;9.18;67.65
21594;BME280;10959;51.328;7.322;2024-03-23T10:07:10;98252.88;;;9.40;67.99
21594;BME280;10959;51.328;7.322;2024-03-23T10:09:37;98252.22;;;9.64;67.51
21594;BME280;10959;51.328;7.322;2024-03-23T10:12:08;98256.69;;;9.85;67.16
21594;BME280;10959;51.328;7.322;2024-03-23T10:14:35;98242.91;;;10.24;67.58
21594;BME280;10959;51.328;7.322;2024-03-23T10:17:12;98240.53;;;9.90;65.51
21594;BME280;10959;51.328;7.322;2024-03-23T10:19:40;98246.16;;;9.79;64.90
21594;BME280;10959;51.328;7.322;2024-03-23T10:22:09;98239.28;;;10.08;64.48
21594;BME280;10959;51.328;7.322;2024-03-23T10:24:36;98229.44;;;10.39;65.33
21594;BME280;10959;51.328;7.322;2024-03-23T10:27:01;98233.84;;;10.60;64.79
21594;BME280;10959;51.328;7.322;2024-03-23T10:29:27;98232.44;;;9.90;63.67
21594;BME280;10959;51.328;7.322;2024-03-23T10:31:53;98233.19;;;9.44;65.45
21594;BME280;10959;51.328;7.322;2024-03-23T10:34:25;98236.94;;;9.06;66.07
21594;BME280;10959;51.328;7.322;2024-03-23T10:36:53;98242.94;;;8.87;67.24
21594;BME280;10959;51.328;7.322;2024-03-23T10:39:21;98239.13;;;8.82;66.72
21594;BME280;10959;51.328;7.322;2024-03-23T10:41:49;98226.03;;;9.28;65.80
21594;BME280;10959;51.328;7.322;2024-03-23T10:44:17;98220.56;;;9.50;66.30
21594;BME280;10959;51.328;7.322;2024-03-23T10:46:44;98222.31;;;9.71;64.48
21594;BME280;10959;51.328;7.322;2024-03-23T10:49:11;98212.56;;;9.65;62.78
21594;BME280;10959;51.328;7.322;2024-03-23T10:51:37;98216.97;;;9.39;64.54
21594;BME280;10959;51.328;7.322;2024-03-23T10:54:04;98209.84;;;9.23;64.05
21594;BME280;10959;51.328;7.322;2024-03-23T10:56:37;98214.34;;;8.86;62.30
21594;BME280;10959;51.328;7.322;2024-03-23T10:59:06;98230.03;;;8.62;62.14
21594;BME280;10959;51.328;7.322;2024-03-23T11:01:32;98219.16;;;8.78;63.06
21594;BME280;10959;51.328;7.322;2024-03-23T11:03:59;98225.88;;;9.08;63.07
21594;BME280;10959;51.328;7.322;2024-03-23T11:06:35;98232.19;;;8.92;61.92
21594;BME280;10959;51.328;7.322;2024-03-23T11:09:01;98256.38;;;8.81;62.56
21594;BME280;10959;51.328;7.322;2024-03-23T11:11:27;98266.38;;;8.59;61.51
21594;BME280;10959;51.328;7.322;2024-03-23T11:13:59;98279.44;;;8.07;61.22
21594;BME280;10959;51.328;7.322;2024-03-23T11:16:26;98281.53;;;7.84;64.06
21594;BME280;10959;51.328;7.322;2024-03-23T11:19:33;98292.06;;;7.68;63.91
21594;BME280;10959;51.328;7.322;2024-03-23T11:21:59;98296.72;;;7.56;65.47
21594;BME280;10959;51.328;7.322;2024-03-23T11:24:26;98283.53;;;7.38;65.37
21594;BME280;10959;51.328;7.322;2024-03-23T11:26:51;98286.22;;;7.38;66.33
21594;BME280;10959;51.328;7.322;2024-03-23T11:29:19;98274.22;;;7.62;66.97
21594;BME280;10959;51.328;7.322;2024-03-23T11:31:46;98270.41;;;7.97;66.72
21594;BME280;10959;51.328;7.322;2024-03-23T11:34:15;98263.59;;;8.27;66.46
21594;BME280;10959;51.328;7.322;2024-03-23T11:36:41;98262.16;;;8.68;66.06
21594;BME280;10959;51.328;7.322;2024-03-23T11:39:14;98263.78;;;9.23;65.44
21594;BME280;10959;51.328;7.322;2024-03-23T11:41:48;98258.84;;;9.47;64.26
21594;BME280;10959;51.328;7.322;2024-03-23T11:44:16;98264.53;;;9.45;63.30
21594;BME280;10959;51.328;7.322;2024-03-23T11:46:42;98250.94;;;9.35;63.66
21594;BME280;10959;51.328;7.322;2024-03-23T11:49:20;98248.53;;;9.07;61.47
21594;BME280;10959;51.328;7.322;2024-03-23T11:51:47;98248.88;;;9.47;63.28
21594;BME280;10959;51.328;7.322;2024-03-23T11:54:14;98233.63;;;9.68;63.70
21594;BME280;10959;51.328;7.322;2024-03-23T11:56:40;98240.78;;;9.89;62.64
21594;BME280;10959;51.328;7.322;2024-03-23T11:59:06;98235.50;;;10.09;62.13
21594;BME280;10959;51.328;7.322;2024-03-23T12:01:32;98227.81;;;10.43;62.39
21594;BME280;10959;51.328;7.322;2024-03-23T12:04:00;98229.78;;;10.73;62.05
21594;BME280;10959;51.328;7.322;2024-03-23T12:06:25;98231.75;;;10.97;61.77
21594;BME280;10959;51.328;7.322;2024-03-23T12:08:52;98223.66;;;11.02;60.53
21594;BME280;10959;51.328;7.322;2024-03-23T12:11:17;98226.34;;;11.02;59.88
21594;BME280;10959;51.328;7.322;2024-03-23T12:13:45;98229.84;;;11.18;60.77
21594;BME280;10959;51.328;7.322;2024-03-23T12:16:12;98232.84;;;11.12;57.83
21594;BME280;10959;51.328;7.322;2024-03-23T12:18:40;98233.03;;;10.65;57.59
21594;BME280;10959;51.328;7.322;2024-03-23T12:21:08;98229.47;;;10.49;58.64
21594;BME280;10959;51.328;7.322;2024-03-23T12:23:35;98225.69;;;10.45;57.46
21594;BME280;10959;51.328;7.322;2024-03-23T12:26:01;98223.28;;;10.59;59.94
21594;BME280;10959;51.328;7.322;2024-03-23T12:28:27;98236.09;;;10.16;57.28
21594;BME280;10959;51.328;7.322;2024-03-23T12:30:53;98229.75;;;9.49;58.48
21594;BME280;10959;51.328;7.322;2024-03-23T12:33:20;98253.00;;;9.23;61.43
21594;BME280;10959;51.328;7.322;2024-03-23T12:35:46;98265.00;;;9.10;61.94
21594;BME280;10959;51.328;7.322;2024-03-23T12:38:14;98273.38;;;8.82;60.90
21594;BME280;10959;51.328;7.322;2024-03-23T12:40:39;98259.53;;;8.73;62.39
21594;BME280;10959;51.328;7.322;2024-03-23T12:43:06;98249.66;;;8.84;61.98
21594;BME280;10959;51.328;7.322;2024-03-23T12:45:32;98231.53;;;8.53;60.54
21594;BME280;10959;51.328;7.322;2024-03-23T12:47:59;98236.34;;;8.46;58.81
21594;BME280;10959;51.328;7.322;2024-03-23T12:50:25;98247.97;;;8.51;60.92
21594;BME280;10959;51.328;7.322;2024-03-23T12:52:51;98251.16;;;8.70;61.26
21594;BME280;10959;51.328;7.322;2024-03-23T12:55:18;98256.78;;;8.68;58.98
21594;BME280;10959;51.328;7.322;2024-03-23T12:57:45;98249.34;;;8.54;59.78
21594;BME280;10959;51.328;7.322;2024-03-23T13:00:12;98255.66;;;8.64;60.82
21594;BME280;10959;51.328;7.322;2024-03-23T13:02:38;98260.16;;;8.80;60.67
21594;BME280;10959;51.328;7.322;2024-03-23T13:05:05;98250.53;;;8.90;61.10
21594;BME280;10959;51.328;7.322;2024-03-23T13:07:33;98245.28;;;9.05;61.62
21594;BME280;10959;51.328;7.322;2024-03-23T13:09:58;98239.03;;;9.31;61.53
21594;BME280;10959;51.328;7.322;2024-03-23T13:12:26;98247.28;;;9.51;62.05
21594;BME280;10959;51.328;7.322;2024-03-23T13:14:52;98235.72;;;9.56;61.76
21594;BME280;10959;51.328;7.322;2024-03-23T13:17:18;98248.31;;;9.45;60.60
21594;BME280;10959;51.328;7.322;2024-03-23T13:19:44;98249.91;;;9.41;61.99
21594;BME280;10959;51.328;7.322;2024-03-23T13:22:10;98240.66;;;9.32;61.95
21594;BME280;10959;51.328;7.322;2024-03-23T13:24:37;98240.75;;;9.42;62.52
21594;BME280;10959;51.328;7.322;2024-03-23T13:27:04;98229.50;;;9.55;62.20
21594;BME280;10959;51.328;7.322;2024-03-23T13:29:34;98231.97;;;9.62;62.28
21594;BME280;10959;51.328;7.322;2024-03-23T13:32:00;98274.34;;;9.61;61.88
21594;BME280;10959;51.328;7.322;2024-03-23T13:34:26;98254.59;;;8.92;61.35
21594;BME280;10959;51.328;7.322;2024-03-23T13:36:54;98238.91;;;8.36;60.54
21594;BME280;10959;51.328;7.322;2024-03-23T13:39:21;98228.16;;;8.19;63.16
21594;BME280;10959;51.328;7.322;2024-03-23T13:41:48;98218.78;;;8.21;61.99
21594;BME280;10959;51.328;7.322;2024-03-23T13:44:13;98217.63;;;8.17;62.15
21594;BME280;10959;51.328;7.322;2024-03-23T13:46:42;98230.00;;;8.35;63.09
21594;BME280;10959;51.328;7.322;2024-03-23T13:49:18;98227.97;;;8.47;63.25
21594;BME280;10959;51.328;7.322;2024-03-23T13:51:50;98214.78;;;8.72;63.54
21594;BME280;10959;51.328;7.322;2024-03-23T13:54:15;98210.56;;;8.81;61.06
21594;BME280;10959;51.328;7.322;2024-03-23T13:56:42;98221.41;;;8.92;61.39
21594;BME280;10959;51.328;7.322;2024-03-23T13:59:07;98225.28;;;9.01;62.31
21594;BME280;10959;51.328;7.322;2024-03-23T14:01:34;98230.97;;;9.04;62.21